• Join FlightAware (Why Join?)
  • Login
  • US Flag 
07:45PM EDT


 

Airport Tracker/Info


-or-


 

Live Flight TrackerFlight Track Log ✈ LXJ541 ✈ 20-Apr-2013 ✈ MMUN / CUN - TKPK / SKB

Flight Track Log - Related Links

Times and Time Zones

All times are in EDT time to prevent confusion due to time zone crossing. See the LXJ541 flight status page for this flight to view local times or setup timezone preferences in your user account.

Time Position Orientation Groundspeed Altitude Reporting Facility
EDT Latitude Longitude Course Direction KTS MPH feet Rate Location/Type
06:26PM 18.1500 -67.8000 97° East 520 598 41,000  Level San Juan Center
06:27PM 18.1333 -67.6500 97° East 520 598 41,000  Level San Juan Center
06:28PM 18.1000 -67.5000 103° East 520 598 41,000  Level San Juan Center
06:29PM 18.0833 -67.3500 97° East 510 587 41,000  Level San Juan Center
06:30PM 18.0667 -67.2000 97° East 510 587 41,000  Level San Juan Center
06:31PM 18.0333 -67.0500 103° East 510 587 41,000  Level San Juan Center
06:32PM 18.0167 -66.9167 97° East 510 587 41,100  Climbing San Juan Center
06:33PM 17.9833 -66.7667 103° East 510 587 41,100  Level San Juan Center
06:34PM 17.9667 -66.6167 97° East 510 587 41,100  Level San Juan Center
06:35PM 17.9500 -66.4667 97° East 510 587 41,100  Level San Juan Center
06:36PM 17.9167 -66.3333 105° East 510 587 41,100  Level San Juan Center
06:37PM 17.9000 -66.1833 97° East 510 587 41,100  Level San Juan Center
06:38PM 17.8667 -66.0333 103° East 510 587 41,100  Level San Juan Center
06:39PM 17.8500 -65.8833 97° East 490 564 41,100  Level San Juan Center
06:40PM 17.8333 -65.7333 97° East 510 587 41,100  Level San Juan Center
06:41PM 17.8000 -65.5833 103° East 510 587 41,100 -60 Level San Juan Center
06:42PM 17.7667 -65.4333 103° East 520 598 41,000 -60 Descending San Juan Center
06:43PM 17.7500 -65.3000 97° East 510 587 41,000  Level San Juan Center
06:44PM 17.7167 -65.1333 102° East 520 598 41,000  Level San Juan Center
06:45PM 17.7000 -64.9833 97° East 520 598 41,000  Level San Juan Center
06:46PM 17.6667 -64.8333 103° East 520 598 41,000  Level San Juan Center
06:47PM 17.6500 -64.6833 97° East 520 598 41,000  Level San Juan Center
06:48PM 17.6167 -64.5333 103° East 530 610 41,000  Level San Juan Center
06:49PM 17.5833 -64.3833 103° East 530 610 41,000 -720 Level San Juan Center
06:50PM 17.5667 -64.2167 96° East 530 610 39,600 -2,040 Descending San Juan Center
06:51PM 17.5333 -64.0833 105° East 520 598 37,000 -2,640 Descending San Juan Center
06:52PM 17.5167 -63.9333 97° East 510 587 34,400 -2,940 Descending San Juan Center
06:53PM 17.4833 -63.8000 105° East 470 541 31,200 -3,300 Descending San Juan Center
06:54PM 17.4667 -63.6667 97° East 440 506 27,800 -3,540 Descending San Juan Center
06:55PM 17.4333 -63.5500 107° East 440 506 24,100 -3,600 Descending San Juan Center
06:56PM 17.4167 -63.4167 97° East 430 495 20,600 -3,420 Descending San Juan Center
06:57PM 17.4000 -63.3167 100° East 410 472 17,300 -3,420 Descending San Juan Center
06:58PM 17.3833 -63.2000 98° East 370 426 13,800 -3,300 Descending San Juan Center
06:59PM 17.3500 -63.1167 113° Southeast 310 357 10,700 -3,120 Descending San Juan Center
07:02PM 17.3569 -62.9794 71° East  Level FlightAware Approximate
07:09PM 17.3112 -62.7187 62° Northeast  Level Estimated
07:10PM 17.3112 -62.7187 62° Northeast  Level Estimated
07:11PM 17.3112 -62.7187 62° Northeast  Level Estimated
07:12PM 17.3112 -62.7187 62° Northeast  Level Estimated
07:13PM 17.3112 -62.7187 62° Northeast  Level Estimated
07:14PM 17.3112 -62.7187 62° Northeast  Level Estimated
07:15PM 17.3112 -62.7187 62° Northeast  Level Estimated
07:16PM 17.3112 -62.7187 62° Northeast  Level Estimated
07:17PM 17.3112 -62.7187 62° Northeast  Level Estimated
07:18PM 17.3112 -62.7187 62° Northeast  Level Estimated
07:19PM 17.3112 -62.7187 62° Northeast  Level Estimated
07:20PM 17.3112 -62.7187 62° Northeast  Level Estimated
07:21PM 17.3112 -62.7187 62° Northeast  Level Estimated
07:22PM 17.3112 -62.7187 62° Northeast  Level Estimated
07:23PM 17.3112 -62.7187 62° Northeast  Level Estimated
07:24PM 17.3112 -62.7187 62° Northeast  Level Estimated
07:25PM 17.3112 -62.7187 62° Northeast  Level Estimated